Latest Weather Observations for Moree

IDN60801

Issued at 9:03 am EDT Thursday 19 October 2017 (issued every 30 minutes, with the page automatically refreshed every 10 minutes)

About weather observations | Map of weather stations | Latest weather observations for NSW | Other Formats
Station Details ID: 053115 Name: MOREE AERO Lat: -29.49 Lon: 149.85 Height: 213.0 m
Data from the previous 72 hours. | See also: Recent months at Moree
Date/Time
EDT
Temp
°C
App
Temp
°C
Dew
Point
°C
Rel
Hum
%
Delta-T
°C
Wind Press
QNH
hPa
Press
MSL
hPa
Rain since
9am
mm
Dir  Spd
km/h
Gust
km/h
Spd
kts
Gust
kts
19/09:00am 21.3 15.6 11.1 52 5.7 ENE 32 41 17 22 1025.4 1024.8 0.0
19/08:30am 20.3 15.9 11.8 58 4.7 ENE 26 33 14 18 1025.3 1024.7 0.0
19/08:00am 20.1 17.1 12.6 62 4.2 ENE 20 32 11 17 1025.3 1024.7 0.0
19/07:30am 18.0 14.8 12.0 68 3.3 ENE 20 26 11 14 1024.9 1024.2 0.0
19/07:00am 17.2 14.9 11.9 71 2.9 E 15 19 8 10 1024.9 1024.2 0.0
19/06:30am 17.4 15.0 11.4 68 3.3 ENE 15 20 8 11 1024.5 1023.8 0.0
19/06:00am 17.7 14.9 11.5 67 3.4 ENE 17 22 9 12 1024.1 1023.4 0.0
19/05:30am 17.6 14.5 11.6 68 3.3 ENE 19 24 10 13 1024.0 1023.3 0.0
19/05:00am 17.3 13.7 11.8 70 3.0 ENE 22 28 12 15 1023.8 1023.1 0.0
19/04:30am 17.1 14.1 11.8 71 2.9 E 19 22 10 12 1023.9 1023.2 0.0
19/04:00am 17.4 15.6 12.1 71 2.9 E 13 17 7 9 1024.0 1023.3 0.0
19/03:30am 17.7 16.1 11.7 68 3.3 E 11 15 6 8 1024.1 1023.4 0.0
19/03:00am 18.2 14.9 11.7 66 3.6 ENE 20 26 11 14 1024.5 1023.8 0.0
19/02:30am 18.4 15.7 11.7 65 3.7 E 17 20 9 11 1024.7 1024.0 0.0
19/02:00am 19.0 15.8 11.3 61 4.2 E 19 24 10 13 1024.8 1024.1 0.0
19/01:30am 19.7 15.4 10.9 57 4.8 ENE 24 33 13 18 1025.1 1024.5 0.0
19/01:00am 19.8 15.6 11.0 57 4.8 ENE 24 32 13 17 1025.3 1024.7 0.0
19/12:30am 19.9 15.7 11.1 57 4.9 ENE 24 33 13 18 1025.3 1024.7 0.0
19/12:00am 20.2 16.4 11.1 56 5.0 ENE 22 28 12 15 1025.3 1024.7 0.0
 
Date/Time
EDT
Temp
°C
App
Temp
°C
Dew
Point
°C
Rel
Hum
%
Delta-T
°C
Wind Press
QNH
hPa
Press
MSL
hPa
Rain since
9am
mm
Dir  Spd
km/h
Gust
km/h
Spd
kts
Gust
kts
18/11:30pm 20.5 16.3 11.2 55 5.2 ENE 24 32 13 17 1025.3 1024.7 0.0
18/11:00pm 20.7 16.2 11.3 55 5.2 ENE 26 33 14 18 1025.0 1024.4 0.0
18/10:30pm 20.9 15.6 11.3 54 5.4 ENE 30 35 16 19 1024.8 1024.1 0.0
18/10:00pm 21.1 15.5 11.4 54 5.4 ENE 32 39 17 21 1024.6 1023.9 0.0
18/09:30pm 21.7 17.0 12.0 54 5.5 ENE 28 37 15 20 1024.2 1023.5 0.0
18/09:00pm 22.3 16.6 11.7 51 6.0 ENE 33 41 18 22 1023.8 1023.1 0.0
18/08:30pm 23.1 18.8 12.1 50 6.3 ENE 26 37 14 20 1023.2 1022.5 0.0
18/08:00pm 23.8 19.1 12.1 48 6.7 ENE 28 37 15 20 1022.6 1021.9 0.0
18/07:30pm 24.5 20.1 11.8 45 7.3 ENE 26 33 14 18 1022.1 1021.4 0.0
18/07:00pm 25.4 21.2 11.2 41 8.1 ENE 24 33 13 18 1021.7 1021.0 0.0
18/06:30pm 26.1 21.6 11.5 40 8.4 ENE 26 33 14 18 1021.2 1020.6 0.0
18/06:00pm 27.0 22.4 11.1 37 9.1 ENE 26 35 14 19 1020.9 1020.2 0.0
18/05:30pm 27.7 22.9 11.7 37 9.3 NE 28 33 15 18 1020.7 1020.0 0.0
18/05:00pm 27.9 22.8 11.9 37 9.3 ENE 30 41 16 22 1020.5 1019.8 0.0
18/04:48pm 27.9 22.9 12.3 38 9.1 E 30 48 16 26 1020.5 1019.8 0.0
18/04:30pm 28.3 23.9 11.8 36 9.6 E 26 37 14 20 1020.4 1019.7 0.0
18/04:00pm 28.8 24.2 12.2 35 9.7 ENE 28 41 15 22 1020.4 1019.7 0.0
18/03:30pm 27.9 24.7 11.9 37 9.3 E 20 32 11 17 1020.8 1020.1 0.0
18/03:00pm 28.5 24.6 12.0 36 9.6 E 24 33 13 18 1021.2 1020.6 0.0
18/02:30pm 28.1 24.3 12.5 38 9.2 E 24 33 13 18 1021.8 1021.1 0.0
18/02:00pm 27.8 23.4 11.8 37 9.3 E 26 37 14 20 1022.0 1021.3 0.0
18/01:30pm 27.9 23.7 12.3 38 9.1 E 26 37 14 20 1022.5 1021.8 0.0
18/01:00pm 27.4 23.1 12.2 39 8.9 E 26 35 14 19 1022.8 1022.1 0.0
18/12:30pm 26.5 21.6 11.4 39 8.7 ENE 28 41 15 22 1023.0 1022.3 0.0
18/12:00pm 26.4 22.3 11.3 39 8.6 E 24 39 13 21 1023.4 1022.7 0.0
18/11:30am 26.0 20.7 11.4 40 8.4 E 30 41 16 22 1023.7 1023.0 0.0
18/11:00am 25.0 19.8 11.6 43 7.6 E 30 41 16 22 1024.0 1023.3 0.0
18/10:30am 24.4 18.9 11.7 45 7.3 E 32 39 17 21 1024.1 1023.4 0.0
18/10:00am 23.2 17.0 11.3 47 6.7 E 35 50 19 27 1024.2 1023.5 0.0
18/09:52am 23.3 17.7 11.4 47 6.7 E 32 50 17 27 1024.1 1023.4 0.0
18/09:30am 22.6 16.9 11.0 48 6.5 E 32 46 17 25 1024.2 1023.5 0.0
18/09:00am 21.7 16.1 10.2 48 6.3 E 30 39 16 21 1024.0 1023.3 0.0
18/08:30am 21.4 16.3 10.6 50 6.0 ESE 28 39 15 21 1023.8 1023.1 0.0
18/08:00am 20.5 16.2 10.6 53 5.4 ESE 24 37 13 20 1023.6 1022.9 0.0
18/07:30am 19.3 16.6 10.3 56 4.9 ESE 15 19 8 10 1023.5 1022.8 0.0
18/07:00am 18.4 15.3 10.3 59 4.4 ESE 17 22 9 12 1023.0 1022.3 0.0
18/06:30am 18.2 14.6 9.8 58 4.5 ESE 19 28 10 15 1022.6 1021.9 0.0
18/06:00am 18.2 14.9 9.5 57 4.6 ESE 17 26 9 14 1022.4 1021.7 0.0
18/05:30am 18.2 15.0 9.8 58 4.5 E 17 22 9 12 1022.3 1021.6 0.0
18/05:00am 18.1 13.9 9.7 58 4.5 ESE 22 30 12 16 1022.0 1021.3 0.0
18/04:30am 18.1 14.4 10.0 59 4.3 ESE 20 30 11 16 1021.9 1021.2 0.0
18/04:00am 18.0 14.3 10.1 60 4.2 ESE 20 26 11 14 1021.9 1021.2 0.0
18/03:30am 18.2 14.5 10.3 60 4.3 E 20 26 11 14 1022.0 1021.3 0.0
18/03:00am 18.3 14.7 10.4 60 4.3 E 20 26 11 14 1022.2 1021.5 0.0
18/02:30am 18.6 15.0 10.4 59 4.4 E 20 28 11 15 1022.4 1021.7 0.0
18/02:00am 18.4 14.9 10.8 61 4.1 E 20 30 11 16 1022.7 1022.0 0.0
18/01:30am 17.9 14.6 10.8 63 3.9 E 19 26 10 14 1023.2 1022.5 0.0
18/01:00am 18.4 14.8 10.5 60 4.3 E 20 28 11 15 1023.4 1022.7 0.0
18/12:30am 18.6 15.2 10.4 59 4.4 E 19 26 10 14 1023.8 1023.1 0.0
18/12:00am 19.1 15.1 10.6 58 4.6 E 22 32 12 17 1023.9 1023.2 0.0
 
Date/Time
EDT
Temp
°C
App
Temp
°C
Dew
Point
°C
Rel
Hum
%
Delta-T
°C
Wind Press
QNH
hPa
Press
MSL
hPa
Rain since
9am
mm
Dir  Spd
km/h
Gust
km/h
Spd
kts
Gust
kts
17/11:30pm 19.8 14.3 10.5 55 5.1 E 30 37 16 20 1023.7 1023.0 0.0
17/11:00pm 19.8 14.7 10.5 55 5.1 E 28 37 15 20 1023.5 1022.8 0.0
17/10:30pm 20.1 14.2 10.5 54 5.3 E 32 41 17 22 1023.1 1022.4 0.0
17/10:00pm 20.8 15.4 10.9 53 5.5 E 30 39 16 21 1022.8 1022.1 0.0
17/09:30pm 20.4 16.9 12.1 59 4.7 E 22 35 12 19 1022.7 1022.0 0.0
17/09:00pm 20.9 18.2 11.8 56 5.1 ENE 17 24 9 13 1022.4 1021.7 0.0
17/08:30pm 21.0 18.1 12.2 57 5.0 E 19 26 10 14 1021.7 1021.0 0.0
17/08:00pm 21.3 18.1 11.9 55 5.3 ENE 20 30 11 16 1021.5 1020.8 0.0
17/07:30pm 21.0 17.5 12.2 57 5.0 NE 22 30 12 16 1021.9 1021.2 0.0
17/07:00pm 21.7 17.8 12.0 54 5.5 NE 24 32 13 17 1021.6 1020.9 0.0
17/06:30pm 21.9 17.6 11.9 53 5.7 NE 26 32 14 17 1021.2 1020.6 0.0
17/06:00pm 22.6 18.2 11.7 50 6.2 NE 26 32 14 17 1020.7 1020.0 0.0
17/05:30pm 23.6 18.4 10.3 43 7.4 ENE 28 39 15 21 1020.6 1019.9 0.0
17/05:00pm 24.1 19.2 10.0 41 7.8 ENE 26 39 14 21 1020.2 1019.5 0.0
17/04:30pm 24.3 19.4 9.8 40 8.0 ENE 26 35 14 19 1020.1 1019.4 0.0
17/04:00pm 25.4 20.1 9.7 37 8.7 ENE 28 37 15 20 1020.0 1019.3 0.0
17/03:30pm 24.5 19.3 8.9 37 8.5 ENE 26 35 14 19 1020.3 1019.6 0.0
17/03:00pm 25.1 19.6 9.0 36 8.8 ENE 28 35 15 19 1020.5 1019.8 0.0
17/02:30pm 25.5 19.1 8.5 34 9.2 ENE 32 41 17 22 1020.9 1020.2 0.0
17/02:00pm 25.7 20.7 9.5 36 8.9 ENE 26 35 14 19 1021.3 1020.7 0.0
17/01:30pm 24.6 19.3 9.7 39 8.2 NE 28 35 15 19 1021.6 1020.9 0.0
17/01:00pm 25.1 19.5 10.2 39 8.3 E 30 43 16 23 1021.8 1021.1 0.0
17/12:30pm 25.5 19.5 10.1 38 8.6 ENE 32 50 17 27 1021.8 1021.1 0.0
17/12:00pm 24.5 17.1 8.5 36 8.6 ENE 37 56 20 30 1022.0 1021.3 0.0
17/11:33am 25.7 19.1 9.9 37 8.8 ENE 35 59 19 32 1022.1 1021.4 0.0
17/11:30am 24.7 17.5 9.0 37 8.6 ENE 37 54 20 29 1022.0 1021.3 0.0
17/11:22am 25.0 18.7 8.9 36 8.8 E 32 46 17 25 1022.1 1021.4 0.0
17/11:00am 24.2 17.9 9.0 38 8.3 E 32 46 17 25 1022.2 1021.5 0.0
17/10:30am 23.5 16.7 9.1 40 7.8 ESE 35 50 19 27 1022.6 1021.9 0.0
17/10:00am 22.7 16.7 10.2 45 6.9 E 32 44 17 24 1022.7 1022.0 0.0
17/09:30am 22.0 15.6 9.2 44 6.9 ESE 33 48 18 26 1022.8 1022.1 0.0
17/09:00am 20.9 13.2 8.5 45 6.5 ESE 39 52 21 28 1022.9 1022.2 0.0
17/08:30am 20.5 15.8 9.4 49 6.0 ESE 24 35 13 19 1022.7 1022.0 0.0
17/08:00am 18.8 15.1 9.3 54 5.0 SE 19 28 10 15 1022.4 1021.7 0.0
17/07:30am 17.0 14.0 9.2 60 4.1 SE 15 20 8 11 1022.1 1021.4 0.0
17/07:00am 16.1 12.6 8.8 62 3.8 SE 17 19 9 10 1021.9 1021.2 0.0
17/06:30am 16.1 12.7 9.1 63 3.6 SE 17 20 9 11 1021.5 1020.8 0.0
17/06:00am 15.8 13.2 9.2 65 3.4 SE 13 15 7 8 1021.0 1020.4 0.0
17/05:30am 16.3 13.8 9.7 65 3.5 SE 13 17 7 9 1020.7 1020.0 0.0
17/05:00am 16.9 13.2 9.3 61 4.0 ESE 19 26 10 14 1020.5 1019.8 0.0
17/04:30am 17.5 13.6 9.4 59 4.3 ESE 20 28 11 15 1020.3 1019.6 0.0
17/04:00am 18.0 12.9 9.1 56 4.7 ESE 26 35 14 19 1020.3 1019.6 0.0
17/03:30am 18.0 13.6 10.4 61 4.1 ESE 24 30 13 16 1020.3 1019.6 0.0
17/03:00am 16.8 14.4 11.3 70 3.0 ESE 15 22 8 12 1020.6 1019.9 0.0
17/02:30am 17.0 14.6 11.3 69 3.1 SE 15 17 8 9 1020.9 1020.2 0.0
17/02:00am 17.3 14.1 11.1 67 3.4 ESE 19 26 10 14 1021.1 1020.5 0.0
17/01:30am 17.8 15.3 10.9 64 3.8 SE 15 19 8 10 1021.6 1020.9 0.0
17/01:00am 17.7 14.7 10.8 64 3.7 SE 17 22 9 12 1021.7 1021.0 0.0
17/12:30am 18.0 14.1 10.9 63 3.9 ESE 22 28 12 15 1022.0 1021.3 0.0
17/12:00am 18.6 14.7 10.7 60 4.3 ESE 22 32 12 17 1022.2 1021.5 0.0
 
Date/Time
EDT
Temp
°C
App
Temp
°C
Dew
Point
°C
Rel
Hum
%
Delta-T
°C
Wind Press
QNH
hPa
Press
MSL
hPa
Rain since
9am
mm
Dir  Spd
km/h
Gust
km/h
Spd
kts
Gust
kts
16/11:30pm 18.7 14.4 10.8 60 4.3 ESE 24 32 13 17 1022.2 1021.5 0.0
16/11:00pm 18.7 14.6 11.3 62 4.1 ESE 24 32 13 17 1022.3 1021.6 0.0
16/10:30pm 18.2 15.4 11.5 65 3.7 ESE 17 24 9 13 1022.3 1021.6 0.0
16/10:00pm 19.1 16.3 11.4 61 4.2 ESE 17 20 9 11 1022.0 1021.3 0.0
16/09:30pm 19.6 15.9 11.6 60 4.5 ESE 22 30 12 16 1021.9 1021.2 0.0
16/09:00pm 19.7 15.0 12.0 61 4.3 ESE 28 35 15 19 1021.7 1021.0 0.0
16/08:30pm 19.1 16.3 12.6 66 3.7 ESE 19 24 10 13 1021.1 1020.5 0.0
16/08:00pm 20.1 17.1 12.6 62 4.3 ESE 20 30 11 16 1020.9 1020.2 0.0
16/07:30pm 21.3 18.4 12.2 56 5.2 ESE 19 26 10 14 1020.6 1019.9 0.0
16/07:00pm 22.4 19.4 11.8 51 6.0 E 19 26 10 14 1020.4 1019.7 0.0
16/06:30pm 23.0 19.6 11.4 48 6.6 ESE 20 32 11 17 1020.0 1019.3 0.0
16/06:00pm 23.4 18.3 11.8 48 6.6 ESE 30 39 16 21 1019.8 1019.1 0.0
16/05:30pm 24.0 19.6 11.7 46 7.0 E 26 35 14 19 1019.6 1018.9 0.0
16/05:00pm 24.0 19.0 11.0 44 7.3 ESE 28 37 15 20 1019.3 1018.6 0.0
16/04:30pm 23.8 19.0 11.8 47 6.9 ESE 28 37 15 20 1019.3 1018.6 0.0
16/04:00pm 23.6 21.2 12.6 50 6.3 SE 17 28 9 15 1019.3 1018.6 0.0
16/03:30pm 22.7 20.4 12.9 54 5.7 ESE 17 30 9 16 1019.5 1018.8 0.0
16/03:00pm 22.5 20.1 12.7 54 5.6 SE 17 26 9 14 1019.9 1019.2 0.0
16/02:30pm 22.4 20.3 13.5 57 5.2 SSE 17 22 9 12 1020.2 1019.5 0.0
16/02:00pm 22.4 19.4 12.6 54 5.6 ESE 20 28 11 15 1020.6 1019.9 0.0
16/01:30pm 20.6 17.6 13.6 64 4.1 E 22 33 12 18 1020.8 1020.1 0.0
16/01:00pm 20.4 14.9 11.9 58 4.8 E 32 44 17 24 1021.1 1020.5 0.0
16/12:30pm 23.2 16.9 9.6 42 7.4 ESE 33 46 18 25 1021.3 1020.7 0.0
16/12:08pm 23.0 16.9 10.4 45 7.0 E 33 52 18 28 1021.6 1020.9 0.0
16/12:00pm 23.4 16.7 9.8 42 7.5 E 35 48 19 26 1021.6 1020.9 0.0
16/11:30am 23.6 18.2 11.0 45 7.1 ESE 30 37 16 20 1021.9 1021.2 0.0
16/11:00am 24.2 19.0 11.5 45 7.2 E 30 39 16 21 1022.0 1021.3 0.0
16/10:30am 22.8 17.3 10.6 46 6.8 ESE 30 41 16 22 1022.1 1021.4 0.0
16/10:00am 23.1 18.2 11.2 47 6.7 ESE 28 39 15 21 1021.9 1021.2 0.0
16/09:30am 21.6 16.8 10.4 49 6.2 ESE 26 33 14 18 1022.0 1021.3 0.0

Other Formats:

Comma delimited format used in spreadsheet applications
http://www.bom.gov.au/fwo/IDN60801/IDN60801.95527.axf

JavaScript Object Notation format (JSON) in row-major order
http://www.bom.gov.au/fwo/IDN60801/IDN60801.95527.json